createdAt,value
2018-01-28T00:01:08.376Z,7.20
2018-01-28T00:03:36.709Z,7.20
2018-01-28T00:06:04.243Z,7.10
2018-01-28T00:08:31.803Z,6.90
2018-01-28T00:10:59.357Z,6.90
2018-01-28T00:13:26.971Z,6.90
2018-01-28T00:15:54.901Z,6.90
2018-01-28T00:18:23.229Z,6.90
2018-01-28T00:20:50.764Z,6.90
2018-01-28T00:23:18.314Z,6.90
2018-01-28T00:25:46.246Z,6.90
2018-01-28T00:28:14.557Z,6.80
2018-01-28T00:30:42.089Z,6.80
2018-01-28T00:33:09.654Z,6.80
2018-01-28T00:35:37.583Z,6.70
2018-01-28T00:38:05.548Z,6.60
2018-01-28T00:40:33.847Z,6.60
2018-01-28T00:43:02.150Z,6.60
2018-01-28T00:45:29.703Z,6.30
2018-01-28T00:47:57.243Z,6.30
2018-01-28T00:50:25.199Z,6.30
2018-01-28T00:52:53.504Z,6.20
2018-01-28T00:55:21.072Z,6.20
2018-01-28T00:57:48.614Z,6.20
2018-01-28T01:00:16.193Z,6.30
2018-01-28T01:02:43.738Z,6.30
2018-01-28T01:05:11.310Z,6.30
2018-01-28T01:07:38.841Z,6.40
2018-01-28T01:10:07.155Z,6.40
2018-01-28T01:12:34.694Z,6.40
2018-01-28T01:15:02.279Z,6.20
2018-01-28T01:17:30.590Z,6.20
2018-01-28T01:19:58.163Z,6.20
2018-01-28T01:22:26.842Z,6.30
2018-01-28T01:24:54.405Z,6.30
2018-01-28T01:27:21.939Z,6.40
2018-01-28T01:29:49.898Z,6.40
2018-01-28T01:32:18.219Z,6.40
2018-01-28T01:34:45.784Z,6.40
2018-01-28T01:37:13.327Z,6.40
2018-01-28T01:39:40.889Z,6.40
2018-01-28T01:42:08.430Z,6.40
2018-01-28T01:44:36.754Z,6.40
2018-01-28T01:47:04.295Z,6.40
2018-01-28T01:49:35.750Z,6.40
2018-01-28T01:52:03.302Z,6.30
2018-01-28T01:54:30.858Z,6.40
2018-01-28T01:56:58.397Z,6.40
2018-01-28T01:59:25.929Z,6.40
2018-01-28T02:01:53.493Z,6.30
2018-01-28T02:04:21.025Z,6.40
2018-01-28T02:06:48.588Z,6.30
2018-01-28T02:09:16.129Z,6.30
2018-01-28T02:11:44.454Z,6.30
2018-01-28T02:14:11.985Z,6.20
2018-01-28T02:16:39.935Z,6.20
2018-01-28T02:19:08.240Z,6.10
2018-01-28T02:21:35.815Z,6.10
2018-01-28T02:24:03.361Z,6.10
2018-01-28T02:26:30.947Z,6.10
2018-01-28T02:28:58.498Z,6.20
2018-01-28T02:31:26.077Z,6.20
2018-01-28T02:33:53.625Z,6.10
2018-01-28T02:36:21.185Z,6.10
2018-01-28T02:38:48.734Z,6.10
2018-01-28T02:41:16.297Z,6.10
2018-01-28T02:43:43.834Z,6.10
2018-01-28T02:46:12.165Z,6.10
2018-01-28T02:48:40.473Z,6.00
2018-01-28T02:51:08.047Z,6.00
2018-01-28T02:53:35.580Z,6.00
2018-01-28T02:56:03.526Z,6.00
2018-01-28T02:58:31.498Z,6.00
2018-01-28T03:00:59.062Z,6.10
2018-01-28T03:03:27.361Z,6.10
2018-01-28T03:05:54.918Z,6.10
2018-01-28T03:08:23.220Z,6.20
2018-01-28T03:10:51.538Z,6.20
2018-01-28T03:13:19.122Z,6.20
2018-01-28T03:15:47.451Z,6.20
2018-01-28T03:18:14.989Z,6.20
2018-01-28T03:20:42.523Z,6.20
2018-01-28T03:23:10.934Z,6.30
2018-01-28T03:25:38.482Z,6.40
2018-01-28T03:28:06.057Z,6.40
2018-01-28T03:30:33.595Z,6.40
2018-01-28T03:33:01.148Z,6.40
2018-01-28T03:35:29.462Z,6.40
2018-01-28T03:37:57.010Z,6.50
2018-01-28T03:40:24.553Z,6.50
2018-01-28T03:42:52.110Z,6.60
2018-01-28T03:45:20.047Z,6.70
2018-01-28T03:47:48.377Z,6.90
2018-01-28T03:50:15.910Z,6.90
2018-01-28T03:52:44.238Z,6.90
2018-01-28T03:55:11.778Z,6.80
2018-01-28T03:57:39.333Z,6.80
2018-01-28T04:00:06.861Z,6.50
2018-01-28T04:02:35.179Z,6.60
2018-01-28T04:05:02.746Z,6.60
2018-01-28T04:07:30.698Z,6.70
2018-01-28T04:09:58.238Z,6.80
2018-01-28T04:12:25.802Z,6.90
2018-01-28T04:14:53.348Z,7.00
2018-01-28T04:17:21.665Z,7.10
2018-01-28T04:19:49.199Z,7.20
2018-01-28T04:22:16.772Z,7.10
2018-01-28T04:24:44.303Z,7.20
2018-01-28T04:27:12.627Z,7.30
2018-01-28T04:29:40.166Z,7.40
2018-01-28T04:32:08.494Z,7.60
2018-01-28T04:34:36.046Z,7.60
2018-01-28T04:37:04.381Z,7.70
2018-01-28T04:39:31.909Z,7.80
2018-01-28T04:42:00.210Z,7.80
2018-01-28T04:44:28.173Z,7.90
2018-01-28T04:46:55.713Z,8.00
2018-01-28T04:49:24.042Z,8.10
2018-01-28T04:51:51.581Z,8.20
2018-01-28T04:54:19.126Z,8.30
2018-01-28T04:56:46.653Z,8.40
2018-01-28T04:59:15.399Z,8.50
2018-01-28T05:01:42.947Z,8.50
2018-01-28T05:04:10.507Z,8.50
2018-01-28T05:06:38.806Z,8.60
2018-01-28T05:09:07.129Z,8.60
2018-01-28T05:11:35.432Z,8.60
2018-01-28T05:14:02.981Z,8.60
2018-01-28T05:16:30.525Z,8.50
2018-01-28T05:18:58.866Z,8.70
2018-01-28T05:21:26.789Z,8.70
2018-01-28T05:23:54.356Z,8.90
2018-01-28T05:26:21.899Z,8.90
2018-01-28T05:28:49.465Z,8.90
2018-01-28T05:31:16.994Z,9.00
2018-01-28T05:33:44.533Z,9.10
2018-01-28T05:36:12.069Z,9.00
2018-01-28T05:38:39.620Z,9.00
2018-01-28T05:41:07.543Z,8.90
2018-01-28T05:43:35.882Z,8.80
2018-01-28T05:46:03.460Z,8.80
2018-01-28T05:48:31.022Z,9.00
2018-01-28T05:50:59.336Z,8.90
2018-01-28T05:53:26.877Z,8.80
2018-01-28T05:55:55.178Z,8.70
2018-01-28T05:58:22.726Z,8.60
2018-01-28T06:00:50.294Z,8.60
2018-01-28T06:03:17.827Z,8.30
2018-01-28T06:05:46.141Z,8.30
2018-01-28T06:08:13.670Z,8.20
2018-01-28T06:10:41.985Z,8.20
2018-01-28T06:13:09.523Z,8.50
2018-01-28T06:15:37.090Z,8.60
2018-01-28T06:18:04.638Z,8.90
2018-01-28T06:20:32.188Z,9.10
2018-01-28T06:23:00.116Z,8.90
2018-01-28T06:25:27.661Z,8.90
2018-01-28T06:27:55.194Z,8.80
2018-01-28T06:30:22.746Z,8.90
2018-01-28T06:32:50.287Z,8.80
2018-01-28T06:35:17.838Z,8.70
2018-01-28T06:37:46.152Z,8.70
2018-01-28T06:40:14.094Z,8.60
2018-01-28T06:42:41.625Z,8.50
2018-01-28T06:45:09.942Z,8.50
2018-01-28T06:47:37.472Z,8.60
2018-01-28T06:50:05.791Z,8.90
2018-01-28T06:52:33.723Z,9.00
2018-01-28T06:55:02.034Z,9.00
2018-01-28T06:57:29.578Z,9.10
2018-01-28T06:59:57.126Z,9.20
2018-01-28T07:02:24.666Z,9.40
2018-01-28T07:04:52.206Z,9.40
2018-01-28T07:07:19.744Z,9.30
2018-01-28T07:09:47.277Z,9.40
2018-01-28T07:12:15.601Z,9.40
2018-01-28T07:14:43.137Z,9.20
2018-01-28T07:17:10.694Z,9.10
2018-01-28T07:19:38.225Z,9.30
2018-01-28T07:22:05.782Z,9.20
2018-01-28T07:24:33.320Z,9.00
2018-01-28T07:27:00.871Z,8.90
2018-01-28T07:29:28.417Z,9.10
2018-01-28T07:31:55.963Z,8.80
2018-01-28T07:34:23.494Z,9.10
2018-01-28T07:36:51.805Z,9.00
2018-01-28T07:39:19.725Z,9.00
2018-01-28T07:41:48.148Z,9.20
2018-01-28T07:44:16.115Z,8.90
2018-01-28T07:46:43.667Z,8.90
2018-01-28T07:49:11.595Z,9.10
2018-01-28T07:51:39.146Z,9.00
2018-01-28T07:54:08.202Z,8.90
2018-01-28T07:56:35.749Z,8.70
2018-01-28T07:59:03.682Z,8.70
2018-01-28T08:01:31.229Z,8.80
2018-01-28T08:03:59.169Z,8.50
2018-01-28T08:06:26.734Z,8.30
2018-01-28T08:08:54.265Z,8.20
2018-01-28T08:14:27.058Z,8.20
2018-01-28T08:16:54.609Z,8.10
2018-01-28T08:19:22.904Z,8.20
2018-01-28T08:21:50.464Z,8.20
2018-01-28T08:24:17.986Z,8.50
2018-01-28T08:26:57.687Z,8.70
2018-01-28T08:29:28.070Z,8.80
2018-01-28T08:31:56.743Z,8.90
2018-01-28T08:34:25.063Z,8.90
2018-01-28T08:36:52.614Z,9.20
2018-01-28T08:39:20.151Z,9.10
2018-01-28T08:41:48.453Z,8.90
2018-01-28T08:44:15.999Z,8.90
2018-01-28T08:46:43.539Z,9.00
2018-01-28T08:49:11.111Z,9.10
2018-01-28T08:51:40.157Z,9.30
2018-01-28T08:54:07.730Z,9.50
2018-01-28T08:56:35.271Z,9.50
2018-01-28T08:59:02.824Z,9.60
2018-01-28T09:01:30.374Z,9.70
2018-01-28T09:03:58.698Z,9.90
2018-01-28T09:06:26.242Z,10.20
2018-01-28T09:08:53.845Z,10.10
2018-01-28T09:11:21.407Z,10.00
2018-01-28T09:13:48.979Z,10.10
2018-01-28T09:16:17.284Z,9.70
2018-01-28T09:18:44.846Z,9.90
2018-01-28T09:21:12.782Z,9.70
2018-01-28T09:23:41.120Z,9.70
2018-01-28T09:26:09.428Z,9.50
2018-01-28T09:28:37.010Z,9.60
2018-01-28T09:31:05.332Z,9.40
2018-01-28T09:33:32.891Z,9.10
2018-01-28T09:36:00.510Z,9.10
2018-01-28T09:38:28.826Z,9.00
2018-01-28T09:40:56.402Z,9.00
2018-01-28T09:43:23.982Z,9.20
2018-01-28T09:45:51.514Z,9.40
2018-01-28T09:48:19.061Z,9.30
2018-01-28T09:50:46.605Z,9.30
2018-01-28T09:53:14.203Z,9.30
2018-01-28T09:55:41.714Z,9.40
2018-01-28T09:58:09.245Z,9.40
2018-01-28T10:00:37.570Z,9.30
2018-01-28T10:03:05.109Z,9.30
2018-01-28T10:05:32.658Z,9.30
2018-01-28T10:08:00.591Z,9.40
2018-01-28T10:10:28.933Z,9.60
2018-01-28T10:12:56.473Z,9.60
2018-01-28T10:15:24.021Z,9.60
2018-01-28T10:17:51.562Z,9.60
2018-01-28T10:20:19.121Z,9.70
2018-01-28T10:22:46.655Z,9.90
2018-01-28T10:25:14.247Z,9.90
2018-01-28T10:27:42.189Z,10.10
2018-01-28T10:30:10.517Z,10.20
2018-01-28T10:32:38.049Z,10.10
2018-01-28T10:35:05.622Z,10.20
2018-01-28T10:37:33.386Z,10.30
2018-01-28T10:40:00.943Z,10.60
2018-01-28T10:42:28.483Z,10.40
2018-01-28T10:44:56.058Z,10.60
2018-01-28T10:47:24.028Z,10.60
2018-01-28T10:49:52.410Z,10.50
2018-01-28T10:52:20.726Z,10.50
2018-01-28T10:54:48.310Z,10.60
2018-01-28T10:57:16.633Z,10.60
2018-01-28T10:59:44.223Z,10.60
2018-01-28T11:02:11.771Z,10.60
2018-01-28T11:04:39.735Z,10.50
2018-01-28T11:07:07.338Z,10.40
2018-01-28T11:09:35.637Z,10.70
2018-01-28T11:12:03.664Z,10.90
2018-01-28T11:14:31.274Z,10.80
2018-01-28T11:16:59.319Z,10.70
2018-01-28T11:19:26.919Z,10.80
2018-01-28T11:21:54.558Z,10.90
2018-01-28T11:24:22.126Z,10.90
2018-01-28T11:26:49.675Z,11.00
2018-01-28T11:29:17.207Z,10.90
2018-01-28T11:31:44.781Z,11.00
2018-01-28T11:34:12.315Z,11.00
2018-01-28T11:36:39.873Z,11.10
2018-01-28T11:39:07.455Z,11.30
2018-01-28T11:41:35.039Z,11.30
2018-01-28T11:44:02.678Z,11.10
2018-01-28T11:46:30.258Z,10.90
2018-01-28T11:48:57.809Z,11.00
2018-01-28T11:51:25.366Z,10.90
2018-01-28T11:53:52.907Z,10.90
2018-01-28T11:56:20.461Z,11.10
2018-01-28T11:58:48.046Z,11.30
2018-01-28T12:01:16.010Z,11.20
2018-01-28T12:03:43.557Z,11.20
2018-01-28T12:06:11.120Z,11.20
2018-01-28T12:08:38.708Z,11.20
2018-01-28T12:11:06.264Z,11.10
2018-01-28T12:13:33.820Z,11.10
2018-01-28T12:16:01.379Z,11.30
2018-01-28T12:18:28.921Z,11.10
2018-01-28T12:20:56.524Z,11.10
2018-01-28T12:23:24.108Z,11.20
2018-01-28T12:25:52.423Z,11.20
2018-01-28T12:28:19.973Z,11.30
2018-01-28T12:30:47.530Z,11.40
2018-01-28T12:33:15.085Z,11.50
2018-01-28T12:35:43.022Z,11.60
2018-01-28T12:38:10.657Z,11.80
2018-01-28T12:40:38.260Z,11.80
2018-01-28T12:43:05.830Z,11.70
2018-01-28T12:45:36.063Z,11.80
2018-01-28T12:48:04.429Z,11.90
2018-01-28T12:50:32.230Z,11.80
2018-01-28T12:53:00.597Z,11.70
2018-01-28T12:55:28.961Z,11.80
2018-01-28T12:57:56.557Z,11.80
2018-01-28T13:00:24.862Z,11.80
2018-01-28T13:02:52.739Z,11.80
2018-01-28T13:05:20.342Z,11.80
2018-01-28T13:07:48.334Z,11.90
2018-01-28T13:10:16.293Z,11.80
2018-01-28T13:12:43.907Z,11.70
2018-01-28T13:15:12.247Z,11.60
2018-01-28T13:17:39.806Z,11.50
2018-01-28T13:20:07.734Z,11.70
2018-01-28T13:22:36.069Z,11.70
2018-01-28T13:25:03.607Z,11.60
2018-01-28T13:27:31.166Z,11.80
2018-01-28T13:29:59.884Z,12.00
2018-01-28T13:32:27.458Z,12.10
2018-01-28T13:34:55.757Z,12.20
2018-01-28T13:37:24.091Z,12.40
2018-01-28T13:39:52.428Z,12.60
2018-01-28T13:42:19.993Z,12.60
2018-01-28T13:44:48.440Z,12.60
2018-01-28T13:47:16.003Z,12.30
2018-01-28T13:49:43.558Z,12.00
2018-01-28T13:52:11.111Z,11.90
2018-01-28T13:54:39.078Z,12.10
2018-01-28T13:57:06.627Z,12.00
2018-01-28T13:59:34.191Z,11.70
2018-01-28T14:02:01.730Z,11.70
2018-01-28T14:04:29.287Z,11.70
2018-01-28T14:06:57.586Z,11.70
2018-01-28T14:09:25.187Z,11.80
2018-01-28T14:11:52.785Z,11.70
2018-01-28T14:14:21.106Z,11.50
2018-01-28T14:16:48.697Z,11.70
2018-01-28T14:19:16.295Z,11.50
2018-01-28T14:21:44.609Z,11.40
2018-01-28T14:24:12.225Z,11.40
2018-01-28T14:26:40.547Z,11.30
2018-01-28T14:29:08.514Z,11.40
2018-01-28T14:31:36.193Z,11.50
2018-01-28T14:34:03.766Z,11.50
2018-01-28T14:36:31.310Z,11.40
2018-01-28T14:38:58.878Z,11.60
2018-01-28T14:41:26.822Z,11.60
2018-01-28T14:43:55.193Z,11.70
2018-01-28T14:46:22.801Z,11.60
2018-01-28T14:48:50.769Z,11.40
2018-01-28T14:51:18.362Z,11.40
2018-01-28T14:53:46.734Z,11.50
2018-01-28T14:56:14.322Z,11.80
2018-01-28T14:58:42.673Z,11.70
2018-01-28T15:01:10.669Z,12.00
2018-01-28T15:03:38.280Z,12.30
2018-01-28T15:06:05.849Z,12.30
2018-01-28T15:08:33.848Z,11.90
2018-01-28T15:11:01.456Z,11.60
2018-01-28T15:13:28.992Z,11.60
2018-01-28T15:15:56.631Z,11.60
2018-01-28T15:18:24.234Z,11.60
2018-01-28T15:20:52.625Z,12.00
2018-01-28T15:23:20.221Z,12.40
2018-01-28T15:25:47.795Z,12.20
2018-01-28T15:28:15.739Z,11.90
2018-01-28T15:30:43.314Z,11.70
2018-01-28T15:33:10.863Z,11.60
2018-01-28T15:35:38.419Z,11.80
2018-01-28T15:38:06.047Z,11.80
2018-01-28T15:40:33.652Z,11.90
2018-01-28T15:43:01.234Z,12.20
2018-01-28T15:45:29.565Z,12.40
2018-01-28T15:47:57.108Z,12.60
2018-01-28T15:50:25.915Z,12.20
2018-01-28T15:52:53.448Z,12.00
2018-01-28T15:55:21.766Z,11.90
2018-01-28T15:57:49.461Z,11.90
2018-01-28T16:00:17.063Z,11.80
2018-01-28T16:02:44.622Z,11.80
2018-01-28T16:05:12.582Z,11.60
2018-01-28T16:07:40.515Z,11.50
2018-01-28T16:10:08.129Z,11.80
2018-01-28T16:12:35.673Z,11.70
2018-01-28T16:15:03.238Z,11.60
2018-01-28T16:17:31.216Z,11.40
2018-01-28T16:19:58.843Z,11.30
2018-01-28T16:22:27.197Z,11.30
2018-01-28T16:25:03.301Z,11.20
2018-01-28T16:27:30.898Z,11.10
2018-01-28T16:29:58.531Z,11.00
2018-01-28T16:32:26.072Z,10.90
2018-01-28T16:34:54.010Z,10.80
2018-01-28T16:37:22.024Z,10.80
2018-01-28T16:39:49.621Z,10.80
2018-01-28T16:42:17.257Z,10.80
2018-01-28T16:44:44.847Z,10.90
2018-01-28T16:47:13.935Z,11.00
2018-01-28T16:49:41.477Z,10.90
2018-01-28T16:52:09.848Z,10.90
2018-01-28T16:54:38.188Z,10.90
2018-01-28T16:57:06.644Z,10.80
2018-01-28T16:59:34.679Z,10.80
2018-01-28T17:02:03.062Z,10.80
2018-01-28T17:04:31.374Z,10.80
2018-01-28T17:06:59.707Z,10.90
2018-01-28T17:09:28.193Z,10.80
2018-01-28T17:11:56.522Z,11.00
2018-01-28T17:14:24.859Z,11.40
2018-01-28T17:16:53.351Z,11.30
2018-01-28T17:19:21.400Z,11.20
2018-01-28T17:21:49.779Z,11.10
2018-01-28T17:24:18.135Z,10.80
2018-01-28T17:26:46.541Z,10.80
2018-01-28T17:29:14.850Z,10.70
2018-01-28T17:31:43.182Z,10.60
2018-01-28T17:34:11.473Z,10.80
2018-01-28T17:36:39.867Z,11.10
2018-01-28T17:39:07.458Z,11.20
2018-01-28T17:41:35.797Z,11.10
2018-01-28T17:44:03.385Z,11.20
2018-01-28T17:46:31.824Z,11.50
2018-01-28T17:49:00.305Z,11.70
2018-01-28T17:51:28.622Z,11.90
2018-01-28T17:53:57.058Z,12.00
2018-01-28T17:56:25.394Z,12.10
2018-01-28T17:58:53.772Z,12.10
2018-01-28T18:01:22.128Z,12.10
2018-01-28T18:03:51.240Z,12.20
2018-01-28T18:06:19.181Z,12.20
2018-01-28T18:08:47.125Z,12.20
2018-01-28T18:11:15.513Z,12.20
2018-01-28T18:13:43.965Z,12.40
2018-01-28T18:16:11.931Z,12.50
2018-01-28T18:18:39.560Z,12.50
2018-01-28T18:21:07.553Z,12.60
2018-01-28T18:23:41.659Z,12.60
2018-01-28T18:26:09.430Z,12.60
2018-01-28T18:28:37.818Z,12.20
2018-01-28T18:31:05.366Z,12.10
2018-01-28T18:33:33.330Z,12.20
2018-01-28T18:36:15.533Z,12.30
2018-01-28T18:38:44.223Z,12.30
2018-01-28T18:41:13.218Z,12.40
2018-01-28T18:43:42.755Z,12.30
2018-01-28T18:46:10.698Z,12.30
2018-01-28T18:48:38.682Z,12.10
2018-01-28T18:51:07.044Z,12.00
2018-01-28T18:53:35.414Z,11.90
2018-01-28T18:56:03.797Z,12.10
2018-01-28T18:58:32.193Z,12.30
2018-01-28T19:01:00.537Z,12.30
2018-01-28T19:03:28.631Z,12.10
2018-01-28T19:05:57.006Z,11.80
2018-01-28T19:08:25.372Z,11.70
2018-01-28T19:10:53.847Z,11.70
2018-01-28T19:13:22.238Z,11.70
2018-01-28T19:15:50.610Z,11.90
2018-01-28T19:18:18.613Z,11.90
2018-01-28T19:20:46.996Z,12.00
2018-01-28T19:23:16.097Z,12.00
2018-01-28T19:25:43.692Z,12.00
2018-01-28T19:28:12.077Z,11.90
2018-01-28T19:30:51.382Z,11.90
2018-01-28T19:33:19.925Z,11.80
2018-01-28T19:35:48.317Z,11.70
2018-01-28T19:38:16.663Z,11.80
2018-01-28T19:40:45.033Z,11.90
2018-01-28T19:43:13.561Z,12.00
2018-01-28T19:45:41.565Z,12.00
2018-01-28T19:48:09.918Z,11.90
2018-01-28T19:50:38.317Z,11.90
2018-01-28T19:53:06.741Z,11.90
2018-01-28T19:55:35.881Z,12.00
2018-01-28T19:58:04.709Z,11.90
2018-01-28T20:00:33.091Z,11.90
2018-01-28T20:03:01.441Z,11.70
2018-01-28T20:05:29.808Z,11.50
2018-01-28T20:07:58.167Z,11.50
2018-01-28T20:10:27.282Z,11.60
2018-01-28T20:12:56.022Z,11.60
2018-01-28T20:15:23.634Z,11.60
2018-01-28T20:17:52.351Z,11.80
2018-01-28T20:20:20.355Z,11.80
2018-01-28T20:22:48.324Z,11.90
2018-01-28T20:25:16.696Z,12.00
2018-01-28T20:27:45.048Z,12.00
2018-01-28T20:30:13.373Z,11.90
2018-01-28T20:32:42.471Z,11.90
2018-01-28T20:35:10.087Z,11.90
2018-01-28T20:37:38.391Z,11.90
2018-01-28T20:40:06.771Z,11.80
2018-01-28T20:42:35.881Z,11.90
2018-01-28T20:45:03.476Z,11.90
2018-01-28T20:47:31.781Z,11.90
2018-01-28T20:50:00.128Z,11.80
2018-01-28T20:52:28.474Z,11.50
2018-01-28T20:54:57.563Z,11.60
2018-01-28T20:57:25.417Z,11.70
2018-01-28T20:59:53.583Z,11.70
2018-01-28T21:02:21.969Z,11.90
2018-01-28T21:04:49.951Z,11.90
2018-01-28T21:07:18.346Z,12.00
2018-01-28T21:09:46.709Z,11.70
2018-01-28T21:12:15.829Z,11.60
2018-01-28T21:14:44.283Z,11.60
2018-01-28T21:17:11.906Z,11.20
2018-01-28T21:19:40.261Z,10.90
2018-01-28T21:22:08.645Z,10.90
2018-01-28T21:24:37.002Z,10.70
2018-01-28T21:27:05.334Z,10.70
2018-01-28T21:29:33.748Z,10.70
2018-01-28T21:32:02.223Z,10.70
2018-01-28T21:34:30.218Z,10.70
2018-01-28T21:36:58.725Z,10.70
2018-01-28T21:39:27.033Z,10.70
2018-01-28T21:41:55.430Z,10.60
2018-01-28T21:44:23.775Z,10.60
2018-01-28T21:46:52.109Z,10.90
2018-01-28T21:49:20.466Z,11.00
2018-01-28T21:51:49.589Z,10.90
2018-01-28T21:54:17.569Z,10.90
2018-01-28T21:56:45.581Z,10.90
2018-01-28T21:59:13.938Z,11.00
2018-01-28T22:01:41.939Z,11.10
2018-01-28T22:04:10.657Z,11.00
2018-01-28T22:06:39.373Z,10.90
2018-01-28T22:12:04.647Z,11.00
2018-01-28T22:14:33.756Z,11.00
2018-01-28T22:17:01.776Z,11.00
2018-01-28T22:19:29.711Z,11.20
2018-01-28T22:21:58.049Z,11.30
2018-01-28T22:24:26.457Z,11.00
2018-01-28T22:26:54.813Z,11.20
2018-01-28T22:29:23.242Z,11.50
2018-01-28T22:31:51.311Z,11.70
2018-01-28T22:34:19.692Z,11.70
2018-01-28T22:36:48.010Z,11.80
2018-01-28T22:39:16.392Z,11.80
2018-01-28T22:41:44.711Z,11.90
2018-01-28T22:44:13.101Z,11.90
2018-01-28T22:46:41.408Z,11.60
2018-01-28T22:49:09.726Z,11.50
2018-01-28T22:51:38.028Z,11.70
2018-01-28T22:54:06.412Z,11.60
2018-01-28T22:56:34.845Z,11.70
2018-01-28T22:59:03.233Z,11.70
2018-01-28T23:01:32.369Z,11.70
2018-01-28T23:03:59.937Z,11.80
2018-01-28T23:06:28.622Z,11.60
2018-01-28T23:08:56.584Z,11.60
2018-01-28T23:11:24.946Z,11.60
2018-01-28T23:13:52.922Z,11.60
2018-01-28T23:16:21.261Z,11.60
2018-01-28T23:18:49.686Z,11.70
2018-01-28T23:21:17.990Z,11.60
2018-01-28T23:23:46.313Z,11.60
2018-01-28T23:26:14.715Z,11.60
2018-01-28T23:28:43.058Z,11.50
2018-01-28T23:31:11.363Z,11.40
2018-01-28T23:33:39.726Z,11.40
2018-01-28T23:36:08.132Z,11.40
2018-01-28T23:38:36.720Z,11.50
2018-01-28T23:41:04.706Z,11.40
2018-01-28T23:43:33.166Z,11.40
2018-01-28T23:46:01.462Z,11.40
2018-01-28T23:48:29.780Z,11.30
2018-01-28T23:50:59.628Z,11.20
2018-01-28T23:53:27.955Z,11.00
2018-01-28T23:55:56.269Z,11.00
2018-01-28T23:58:24.578Z,11.00
